createdAt,value
2022-12-08T17:47:41.811Z,21.38
2022-12-08T17:50:11.997Z,22.10
2022-12-08T17:52:41.846Z,22.60
2022-12-08T17:55:12.219Z,25.40
2022-12-08T17:57:42.436Z,24.20
2022-12-08T18:00:14.326Z,37.42
2022-12-08T18:02:45.479Z,33.40
2022-12-08T18:05:16.882Z,31.63
2022-12-08T18:07:46.542Z,31.77
2022-12-08T18:10:16.842Z,31.38
2022-12-08T18:12:46.995Z,29.70
2022-12-08T18:15:21.527Z,30.88
2022-12-08T18:17:53.088Z,28.55
2022-12-08T18:20:22.921Z,29.75
2022-12-08T18:22:52.762Z,30.52
2022-12-08T18:25:22.774Z,30.88
2022-12-08T18:27:55.468Z,32.45
2022-12-08T18:30:26.366Z,33.15
2022-12-08T18:32:57.698Z,30.05
2022-12-08T18:35:28.694Z,33.53
2022-12-08T18:37:58.445Z,31.70
2022-12-08T18:40:28.703Z,35.67
2022-12-08T18:42:58.696Z,32.28
2022-12-08T18:45:28.242Z,31.08
2022-12-08T18:47:59.308Z,30.27
2022-12-08T18:50:29.612Z,29.92
2022-12-08T18:52:59.203Z,33.58
2022-12-08T18:55:29.031Z,32.08
2022-12-08T18:58:14.433Z,34.28
2022-12-08T19:00:44.301Z,36.20
2022-12-08T19:03:15.366Z,33.55
2022-12-08T19:05:45.131Z,33.63
2022-12-08T19:08:14.795Z,34.17
2022-12-08T19:10:44.543Z,33.30
2022-12-08T19:13:14.183Z,34.63
2022-12-08T19:15:43.995Z,32.15
2022-12-08T19:18:14.899Z,31.50
2022-12-08T19:20:44.621Z,33.25
2022-12-08T19:23:15.230Z,32.47
2022-12-08T19:25:44.949Z,30.90
2022-12-08T19:28:14.504Z,33.90
2022-12-08T19:30:44.316Z,30.27
2022-12-08T19:33:15.341Z,31.20
2022-12-08T19:35:49.053Z,29.25
2022-12-08T19:38:21.961Z,30.63
2022-12-08T19:41:08.971Z,30.33
2022-12-08T19:43:56.006Z,28.80
2022-12-08T19:46:26.146Z,31.10
2022-12-08T19:48:58.344Z,30.33
2022-12-08T19:51:28.552Z,31.38
2022-12-08T19:53:58.092Z,31.30
2022-12-08T19:56:27.634Z,30.38
2022-12-08T19:58:57.149Z,32.20
2022-12-08T20:01:27.111Z,31.23
2022-12-08T20:03:58.174Z,27.00
2022-12-08T20:06:28.607Z,30.50
2022-12-08T20:08:58.252Z,33.38
2022-12-08T20:11:27.788Z,31.23
2022-12-08T20:13:57.483Z,30.27
2022-12-08T20:16:27.088Z,32.35
2022-12-08T20:18:58.059Z,33.95
2022-12-08T20:21:27.664Z,31.60
2022-12-08T20:23:57.565Z,34.92
2022-12-08T20:26:27.129Z,36.50
2022-12-08T20:28:56.644Z,33.80
2022-12-08T20:31:30.296Z,32.60
2022-12-08T20:34:02.141Z,36.22
2022-12-08T20:36:32.285Z,28.38
2022-12-08T20:39:01.801Z,32.63
2022-12-08T20:41:36.134Z,29.35
2022-12-08T20:44:08.673Z,29.33
2022-12-08T20:46:39.165Z,26.83
2022-12-08T20:49:10.244Z,23.73
2022-12-08T20:51:40.048Z,25.75
2022-12-08T20:54:10.612Z,26.17
2022-12-08T20:56:48.099Z,25.08
2022-12-08T20:59:18.690Z,24.30
2022-12-08T21:01:48.478Z,23.77
2022-12-08T21:04:19.892Z,27.60
2022-12-08T21:06:49.969Z,26.17
2022-12-08T21:09:19.719Z,25.95
2022-12-08T21:11:49.306Z,27.42
2022-12-08T21:14:19.150Z,29.50
2022-12-08T21:16:49.871Z,28.45
2022-12-08T21:19:21.724Z,28.25
2022-12-08T21:21:51.636Z,24.92
2022-12-08T21:24:21.336Z,24.20
2022-12-08T21:26:51.022Z,25.35
2022-12-08T21:29:20.554Z,26.23
2022-12-08T21:31:50.263Z,24.15
2022-12-08T21:34:21.248Z,23.85
2022-12-08T21:36:50.799Z,25.65
2022-12-08T21:39:20.429Z,26.45
2022-12-08T21:42:07.475Z,25.23
2022-12-08T21:44:37.257Z,24.42
2022-12-08T21:47:07.524Z,25.92
2022-12-08T21:49:38.507Z,24.25
2022-12-08T21:52:08.205Z,28.55
2022-12-08T21:54:38.142Z,24.77
2022-12-08T21:57:07.820Z,23.15
2022-12-08T21:59:37.470Z,24.92
2022-12-08T22:02:08.353Z,24.85
2022-12-08T22:04:40.201Z,25.38
2022-12-08T22:07:11.153Z,21.63
2022-12-08T22:09:40.768Z,24.38
2022-12-08T22:12:11.854Z,22.73
2022-12-08T22:14:41.579Z,21.65
2022-12-08T22:17:11.425Z,23.08
2022-12-08T22:19:42.694Z,26.35
2022-12-08T22:22:12.472Z,26.08
2022-12-08T22:24:42.060Z,28.45
2022-12-08T22:27:11.657Z,32.00
2022-12-08T22:29:41.460Z,31.63
2022-12-08T22:32:11.585Z,29.38
2022-12-08T22:34:42.838Z,29.40
2022-12-08T22:37:12.583Z,31.98
2022-12-08T22:39:42.161Z,35.28
2022-12-08T22:42:11.925Z,33.10
2022-12-08T22:44:41.544Z,32.95
2022-12-08T22:47:11.542Z,34.53
2022-12-08T22:49:42.699Z,34.60
2022-12-08T22:52:12.455Z,37.10
2022-12-08T22:54:41.971Z,35.58
2022-12-08T22:57:11.700Z,35.67
2022-12-08T22:59:41.419Z,37.67
2022-12-08T23:02:11.634Z,35.00
2022-12-08T23:04:42.723Z,38.58
2022-12-08T23:07:12.608Z,36.08
2022-12-08T23:09:42.223Z,34.95
2022-12-08T23:12:11.763Z,30.50
2022-12-08T23:14:41.488Z,35.53
2022-12-08T23:17:11.785Z,35.85
2022-12-08T23:19:43.152Z,32.97
2022-12-08T23:22:12.680Z,30.92
2022-12-08T23:24:42.795Z,33.03
2022-12-08T23:27:12.396Z,34.45
2022-12-08T23:29:42.194Z,33.05
2022-12-08T23:32:11.821Z,32.20
2022-12-08T23:34:42.743Z,31.73
2022-12-08T23:37:12.255Z,33.92
2022-12-08T23:39:41.846Z,34.42
2022-12-08T23:42:11.681Z,31.08
2022-12-08T23:44:41.488Z,33.47
2022-12-08T23:47:11.121Z,34.60
2022-12-08T23:49:42.247Z,34.33
2022-12-08T23:52:13.891Z,31.95
2022-12-08T23:54:44.444Z,32.40
2022-12-08T23:57:14.044Z,30.00
2022-12-08T23:59:43.669Z,28.38
